createdAt,value
2023-03-22T00:01:19.888Z,8.31
2023-03-22T00:03:48.827Z,8.30
2023-03-22T00:06:19.358Z,8.27
2023-03-22T00:08:51.726Z,8.22
2023-03-22T00:11:21.244Z,8.18
2023-03-22T00:13:52.828Z,8.18
2023-03-22T00:16:22.182Z,8.18
2023-03-22T00:19:02.788Z,8.20
2023-03-22T00:21:31.266Z,8.21
2023-03-22T00:23:59.295Z,8.19
2023-03-22T00:26:27.384Z,8.18
2023-03-22T00:28:55.402Z,8.15
2023-03-22T00:31:23.633Z,8.12
2023-03-22T00:33:52.362Z,8.05
2023-03-22T00:36:20.535Z,7.97
2023-03-22T00:38:52.265Z,7.94
2023-03-22T00:41:22.643Z,7.88
2023-03-22T00:43:56.871Z,7.85
2023-03-22T00:46:26.242Z,7.83
2023-03-22T00:48:54.472Z,7.82
2023-03-22T00:51:24.597Z,7.82
2023-03-22T00:53:54.284Z,7.80
2023-03-22T00:56:25.638Z,7.79
2023-03-22T00:59:01.733Z,7.79
2023-03-22T01:01:32.059Z,7.80
2023-03-22T01:04:00.901Z,7.81
2023-03-22T01:06:29.840Z,7.81
2023-03-22T01:08:57.965Z,7.80
2023-03-22T01:11:26.514Z,7.76
2023-03-22T01:13:55.844Z,7.70
2023-03-22T01:16:25.014Z,7.66
2023-03-22T01:18:53.351Z,7.61
2023-03-22T01:21:21.778Z,7.60
2023-03-22T01:23:51.706Z,7.57
2023-03-22T01:26:21.000Z,7.56
2023-03-22T01:28:49.942Z,7.52
2023-03-22T01:31:18.175Z,7.52
2023-03-22T01:33:46.399Z,7.51
2023-03-22T01:36:14.711Z,7.46
2023-03-22T01:38:42.886Z,7.43
2023-03-22T01:41:11.198Z,7.41
2023-03-22T01:43:41.166Z,7.38
2023-03-22T01:46:09.348Z,7.34
2023-03-22T01:48:46.252Z,7.31
2023-03-22T01:51:20.611Z,7.24
2023-03-22T01:54:24.006Z,7.17
2023-03-22T01:56:53.337Z,7.10
2023-03-22T01:59:30.775Z,7.06
2023-03-22T02:02:31.576Z,7.01
2023-03-22T02:05:09.133Z,7.00
2023-03-22T02:07:37.608Z,6.98
2023-03-22T02:10:25.083Z,6.96
2023-03-22T02:13:16.339Z,6.96
2023-03-22T02:16:00.558Z,6.98
2023-03-22T02:19:08.640Z,7.00
2023-03-22T02:22:01.780Z,7.04
2023-03-22T02:24:48.602Z,7.05
2023-03-22T02:27:58.626Z,7.06
2023-03-22T02:30:36.411Z,7.07
2023-03-22T02:33:32.550Z,7.06
2023-03-22T02:36:23.527Z,7.08
2023-03-22T02:39:21.277Z,7.08
2023-03-22T02:42:32.587Z,7.08
2023-03-22T02:45:21.597Z,7.08
2023-03-22T02:47:56.603Z,7.08
2023-03-22T02:50:26.195Z,7.07
2023-03-22T02:53:02.090Z,7.06
2023-03-22T02:55:35.514Z,7.04
2023-03-22T02:58:22.109Z,7.02
2023-03-22T03:00:56.565Z,7.02
2023-03-22T03:03:29.474Z,7.01
2023-03-22T03:06:01.259Z,6.99
2023-03-22T03:08:29.668Z,6.97
2023-03-22T03:11:00.263Z,6.95
2023-03-22T03:13:28.760Z,6.95
2023-03-22T03:15:59.621Z,6.92
2023-03-22T03:18:48.988Z,6.88
2023-03-22T03:21:50.974Z,6.84
2023-03-22T03:24:33.461Z,6.81
2023-03-22T03:27:23.864Z,6.81
2023-03-22T03:30:14.286Z,6.81
2023-03-22T03:32:56.879Z,6.79
2023-03-22T03:35:46.210Z,6.78
2023-03-22T03:38:18.669Z,6.73
2023-03-22T03:40:49.299Z,6.68
2023-03-22T03:43:17.745Z,6.64
2023-03-22T03:45:47.504Z,6.60
2023-03-22T03:48:18.984Z,6.60
2023-03-22T03:50:50.292Z,6.59
2023-03-22T03:53:18.663Z,6.57
2023-03-22T03:55:46.863Z,6.59
2023-03-22T03:58:18.543Z,6.60
2023-03-22T04:00:47.498Z,6.61
2023-03-22T04:03:46.715Z,6.63
2023-03-22T04:06:35.469Z,6.62
2023-03-22T04:09:09.895Z,6.61
2023-03-22T04:11:44.518Z,6.62
2023-03-22T04:14:14.708Z,6.63
2023-03-22T04:16:42.948Z,6.65
2023-03-22T04:19:14.424Z,6.65
2023-03-22T04:21:42.664Z,6.64
2023-03-22T04:24:11.346Z,6.63
2023-03-22T04:26:42.815Z,6.63
2023-03-22T04:29:38.499Z,6.65
2023-03-22T04:32:31.697Z,6.66
2023-03-22T04:35:01.538Z,6.67
2023-03-22T04:37:34.210Z,6.69
2023-03-22T04:40:21.484Z,6.68
2023-03-22T04:43:04.226Z,6.66
2023-03-22T04:45:48.962Z,6.66
2023-03-22T04:48:22.420Z,6.66
2023-03-22T04:50:53.615Z,6.67
2023-03-22T04:53:27.632Z,6.70
2023-03-22T04:55:59.101Z,6.72
2023-03-22T04:58:28.541Z,6.74
2023-03-22T05:00:56.694Z,6.77
2023-03-22T05:03:26.431Z,6.80
2023-03-22T05:05:56.241Z,6.83
2023-03-22T05:08:26.191Z,6.86
2023-03-22T05:10:56.263Z,6.91
2023-03-22T05:13:26.433Z,6.94
2023-03-22T05:16:05.140Z,6.99
2023-03-22T05:18:46.095Z,7.04
2023-03-22T05:21:15.678Z,7.10
2023-03-22T05:23:45.997Z,7.15
2023-03-22T05:26:16.002Z,7.20
2023-03-22T05:28:46.263Z,7.24
2023-03-22T05:31:22.214Z,7.27
2023-03-22T05:34:04.004Z,7.32
2023-03-22T05:36:36.680Z,7.39
2023-03-22T05:39:29.993Z,7.45
2023-03-22T05:41:58.261Z,7.49
2023-03-22T05:44:26.946Z,7.53
2023-03-22T05:47:07.058Z,7.58
2023-03-22T05:49:38.309Z,7.63
2023-03-22T05:52:09.174Z,7.68
2023-03-22T05:54:56.081Z,7.73
2023-03-22T05:57:24.211Z,7.77
2023-03-22T05:59:54.128Z,7.80
2023-03-22T06:02:27.229Z,7.85
2023-03-22T06:04:59.839Z,7.89
2023-03-22T06:07:29.046Z,7.92
2023-03-22T06:10:02.201Z,7.98
2023-03-22T06:12:33.124Z,8.04
2023-03-22T06:15:08.520Z,8.08
2023-03-22T06:17:43.216Z,8.13
2023-03-22T06:20:17.984Z,8.17
2023-03-22T06:22:54.971Z,8.24
2023-03-22T06:25:24.203Z,8.30
2023-03-22T06:27:52.604Z,8.35
2023-03-22T06:30:26.289Z,8.37
2023-03-22T06:33:21.819Z,8.36
2023-03-22T06:35:54.831Z,8.36
2023-03-22T06:38:30.405Z,8.37
2023-03-22T06:40:59.190Z,8.39
2023-03-22T06:43:27.830Z,8.44
2023-03-22T06:46:03.572Z,8.49
2023-03-22T06:48:36.325Z,8.54
2023-03-22T06:51:12.452Z,8.55
2023-03-22T06:53:41.426Z,8.60
2023-03-22T06:56:12.400Z,8.66
2023-03-22T06:58:48.027Z,8.75
2023-03-22T07:01:16.386Z,8.81
2023-03-22T07:03:46.092Z,8.86
2023-03-22T07:06:16.595Z,8.90
2023-03-22T07:08:47.992Z,8.99
2023-03-22T07:11:20.395Z,9.09
2023-03-22T07:13:57.201Z,9.19
2023-03-22T07:16:26.609Z,9.29
2023-03-22T07:19:03.505Z,9.41
2023-03-22T07:21:32.985Z,9.51
2023-03-22T07:24:07.001Z,9.64
2023-03-22T07:26:35.208Z,9.73
2023-03-22T07:29:04.332Z,9.77
2023-03-22T07:31:38.356Z,9.82
2023-03-22T07:34:27.341Z,9.89
2023-03-22T07:37:15.782Z,9.96
2023-03-22T07:39:43.932Z,10.06
2023-03-22T07:42:12.892Z,10.20
2023-03-22T07:44:43.997Z,10.35
2023-03-22T07:47:37.733Z,10.51
2023-03-22T07:50:20.443Z,10.75
2023-03-22T07:52:52.752Z,10.95
2023-03-22T07:55:20.891Z,11.18
2023-03-22T07:57:48.887Z,11.47
2023-03-22T08:00:17.329Z,11.70
2023-03-22T08:02:50.424Z,11.96
2023-03-22T08:05:35.000Z,12.23
2023-03-22T08:08:04.299Z,12.44
2023-03-22T08:10:33.041Z,12.63
2023-03-22T08:13:02.312Z,12.83
2023-03-22T08:15:32.157Z,13.06
2023-03-22T08:18:00.796Z,13.30
2023-03-22T08:20:35.539Z,13.58
2023-03-22T08:23:12.605Z,13.75
2023-03-22T08:26:04.363Z,13.85
2023-03-22T08:28:34.144Z,13.89
2023-03-22T08:31:02.674Z,13.90
2023-03-22T08:33:31.201Z,13.95
2023-03-22T08:36:09.257Z,14.07
2023-03-22T08:38:45.953Z,14.22
2023-03-22T08:41:16.285Z,14.35
2023-03-22T08:43:44.829Z,14.45
2023-03-22T08:46:13.897Z,14.62
2023-03-22T08:48:50.645Z,14.78
2023-03-22T08:51:31.997Z,14.91
2023-03-22T08:54:13.755Z,15.10
2023-03-22T08:56:50.719Z,15.34
2023-03-22T08:59:27.304Z,15.55
2023-03-22T09:02:16.529Z,15.73
2023-03-22T09:04:45.048Z,15.94
2023-03-22T09:07:14.274Z,16.08
2023-03-22T09:09:44.406Z,16.21
2023-03-22T09:12:14.730Z,16.27
2023-03-22T09:14:43.191Z,16.20
2023-03-22T09:17:13.109Z,16.13
2023-03-22T09:19:41.375Z,15.99
2023-03-22T09:22:09.643Z,15.81
2023-03-22T09:24:46.828Z,15.68
2023-03-22T09:27:14.854Z,15.61
2023-03-22T09:29:43.356Z,15.68
2023-03-22T09:32:17.382Z,15.64
2023-03-22T09:34:48.860Z,15.64
2023-03-22T09:37:21.841Z,15.70
2023-03-22T09:39:54.587Z,16.01
2023-03-22T09:42:34.319Z,16.18
2023-03-22T09:45:08.129Z,16.27
2023-03-22T09:47:44.720Z,16.14
2023-03-22T09:50:31.795Z,15.90
2023-03-22T09:53:00.575Z,15.70
2023-03-22T09:55:41.695Z,15.52
2023-03-22T09:58:24.888Z,15.42
2023-03-22T10:01:01.587Z,15.40
2023-03-22T10:03:37.227Z,15.46
2023-03-22T10:06:13.593Z,15.53
2023-03-22T10:09:30.029Z,15.55
2023-03-22T10:12:05.748Z,15.59
2023-03-22T10:14:48.948Z,15.73
2023-03-22T10:17:19.680Z,15.86
2023-03-22T10:20:09.169Z,15.89
2023-03-22T10:22:42.783Z,15.87
2023-03-22T10:25:16.301Z,15.87
2023-03-22T10:27:47.534Z,15.93
2023-03-22T10:30:24.502Z,15.91
2023-03-22T10:33:04.173Z,15.93
2023-03-22T10:35:37.328Z,16.05
2023-03-22T10:38:19.246Z,16.18
2023-03-22T10:40:47.831Z,16.25
2023-03-22T10:43:38.373Z,16.32
2023-03-22T10:46:09.200Z,16.40
2023-03-22T10:48:48.206Z,16.45
2023-03-22T10:51:29.981Z,16.40
2023-03-22T10:53:58.773Z,16.36
2023-03-22T10:56:27.096Z,16.35
2023-03-22T10:59:01.005Z,16.33
2023-03-22T11:01:32.431Z,16.41
2023-03-22T11:04:04.189Z,16.38
2023-03-22T11:06:39.438Z,16.09
2023-03-22T11:09:13.316Z,16.12
2023-03-22T11:11:55.541Z,16.25
2023-03-22T11:14:28.588Z,16.30
2023-03-22T11:17:14.104Z,16.19
2023-03-22T11:20:13.942Z,16.04
2023-03-22T11:22:47.120Z,15.99
2023-03-22T11:25:22.469Z,15.96
2023-03-22T11:27:56.264Z,16.00
2023-03-22T11:30:28.860Z,16.10
2023-03-22T11:33:17.297Z,16.12
2023-03-22T11:35:54.709Z,16.03
2023-03-22T11:38:24.297Z,15.92
2023-03-22T11:40:55.191Z,15.82
2023-03-22T11:43:39.082Z,15.72
2023-03-22T11:46:09.175Z,15.53
2023-03-22T11:48:37.595Z,15.37
2023-03-22T11:51:12.056Z,15.32
2023-03-22T11:53:48.179Z,15.25
2023-03-22T11:56:18.220Z,15.13
2023-03-22T11:58:56.382Z,15.08
2023-03-22T12:01:32.229Z,15.03
2023-03-22T12:04:00.846Z,14.95
2023-03-22T12:06:29.870Z,14.93
2023-03-22T12:09:00.843Z,14.97
2023-03-22T12:11:47.159Z,14.99
2023-03-22T12:14:52.022Z,15.04
2023-03-22T12:17:31.350Z,15.05
2023-03-22T12:20:23.028Z,15.04
2023-03-22T12:22:57.125Z,15.03
2023-03-22T12:25:27.702Z,14.96
2023-03-22T12:28:07.755Z,14.91
2023-03-22T12:30:50.029Z,14.84
2023-03-22T12:33:43.438Z,14.70
2023-03-22T12:36:15.549Z,14.62
2023-03-22T12:38:51.188Z,14.57
2023-03-22T12:41:28.228Z,14.53
2023-03-22T12:44:01.850Z,14.52
2023-03-22T12:47:15.994Z,14.54
2023-03-22T12:49:54.458Z,14.63
2023-03-22T12:52:45.509Z,14.75
2023-03-22T12:55:21.355Z,14.81
2023-03-22T12:57:52.635Z,14.84
2023-03-22T13:00:28.778Z,14.89
2023-03-22T13:03:21.136Z,14.96
2023-03-22T13:05:52.303Z,15.07
2023-03-22T13:08:21.694Z,15.11
2023-03-22T13:10:50.881Z,15.17
2023-03-22T13:13:22.121Z,15.22
2023-03-22T13:16:12.712Z,15.29
2023-03-22T13:18:43.961Z,15.37
2023-03-22T13:21:15.103Z,15.45
2023-03-22T13:24:19.652Z,15.50
2023-03-22T13:26:54.287Z,15.52
2023-03-22T13:29:34.434Z,15.57
2023-03-22T13:32:30.066Z,15.63
2023-03-22T13:34:58.121Z,15.67
2023-03-22T13:37:38.186Z,15.66
2023-03-22T13:40:59.527Z,15.60
2023-03-22T13:43:46.345Z,15.44
2023-03-22T13:46:19.879Z,15.30
2023-03-22T13:48:55.402Z,15.21
2023-03-22T13:51:25.425Z,15.10
2023-03-22T13:54:08.874Z,14.97
2023-03-22T13:56:57.341Z,14.89
2023-03-22T13:59:27.129Z,14.82
2023-03-22T14:02:05.018Z,14.73
2023-03-22T14:04:56.196Z,14.58
2023-03-22T14:07:31.550Z,14.42
2023-03-22T14:10:03.643Z,14.27
2023-03-22T14:13:14.436Z,14.19
2023-03-22T14:15:47.098Z,14.16
2023-03-22T14:18:28.765Z,14.13
2023-03-22T14:21:03.873Z,14.06
